Springlake, TX (79082)

2:45 AM CST on November 29, 2014 (GMT -0600)
WT_Meso Olton 6S | Change Station
CLOSE
Current Station
Personal Weather Station
Location: Olton, TX
Elevation: 3565 ft
Nearby Weather Stations

Elev 3565 ft 34.09 °N, 102.12 °W | Updated 50 minutes ago

Clear
Clear
39 °F
Feels Like 32 °F
N
11
Wind Variable Wind from WSW
Gusts 11.0 mph

Today
High -- | Low -- °F
--% Chance of Precip.
Yesterday
High -- | Low -- °F
Precip. -- in
7:35 AM 5:39 PM
Waxing Crescent, 49% visible
Pressure 29.89 in
Visibility 10.0 miles
Clouds Clear
Windchill 32 °F
Dew Point 24 °F
Humidity 56%
Rainfall -999.00 in
Snow Depth Not available.
UV 0 out of 12
Pollen 7.60 out of 12
Air Quality Not available.
Flu Activity Not available.
METAR KPVW 290835Z AUTO 00000KT 10SM CLR 04/M04 A2989 RMK AO2 T00431038

More Conditions Fewer Conditions

Pressure 29.89 in
Visibility 10.0 miles
Clouds Clear
Windchill 32 °F
Dew Point 24 °F
Humidity 56%
Rainfall -999.00 in
Snow Depth Not available.
UV 0 out of 12
Pollen 7.60 out of 12
Air Quality Not available.
Flu Activity Not available.
METAR KPVW 290835Z AUTO 00000KT 10SM CLR 04/M04 A2989 RMK AO2 T00431038

More Conditions Fewer Conditions

10-Day Weather Forecast

Almanac

Astronomy

Nov. 29, 2014 Rise Set
Actual Time
Civil Twilight
Nautical Twilight
Astronomical Twilight
Moon
Length of Visible Light
Length of Day
Tomorrow will be .
, % of the Moon is Illuminated

Today's Extremes

State Highs State Lows

Community

WunderPhotos

Upload Photos

1,774,442 photos uploaded!

WunderBlogs® & News

Nearby

Air Quality

  Air Quality AQ Index Pollutant
Not available.

Snow Depth

Station Depth Elevation

Earthquake Activity

City Distance Mag. Time & Date
Minimum magnitude displayed is 2.5.

Coastal Water Temperatures

Place Temperature

Nearby Weather Stations